< < Back
Terminal Aerodrome Forecast


Current Version              Previous Versions:   1  2  3  4  5  6  7  8  9  

Terminal Aerodrome Forecast

341
FTUS44 KBMX 281720
TAFTCL
TAF
KTCL 281720Z 2818/2918 02005KT P6SM OVC016
     FM281900 04005KT P6SM SCT025 BKN150
     FM282100 36010KT P6SM VCTS BKN050CB
     FM290100 01005KT P6SM BKN250=

Latest METAR

067
SAUS70 KWBC 282000 RRM
MTRTCL
METAR KTCL 281953Z 01003KT 8SM FEW019 28/23 A3000 RMK AO2 SLP157
T02780233


USA.gov is the U.S. government's official web portal to all federal, state and local government web resources and services.